KMXO/MXO METAR and TAF weather

Enter ICAO airport designator
Station Type Date Time Source
KMXO METAR 2021/06/22 23:35 UTC NOAA

KMXO 222335Z AUTO 29021G28KT 2SM +RA FEW029 BKN049 OVC080 19/18 A2991 RMK AO2


Station Type Date Time Source
KMXO Decoded METAR 2021/06/22 23:35 UTC NOAA

Monticello Municipal, IA, United States (KMXO) 42-14N 091-10W
Jun 22, 2021 - 07:35 PM EDT / 2021.06.22 2335 UTC
Wind: from the WNW (290 degrees) at 24 MPH (21 KT) gusting to 32 MPH (28 KT):0
Visibility: 2 mile(s):0
Sky conditions: overcast
Weather: heavy rain
Temperature: 66 F (19 C)
Dew Point: 64 F (18 C)
Relative Humidity: 93%
Pressure (altimeter): 29.91 in. Hg (1012 hPa)
ob: KMXO 222335Z AUTO 29021G28KT 2SM +RA FEW029 BKN049 OVC080 19/18 A2991 RMK AO2
cycle: 23

Station Type Date Time Source
KMXO TAF UTC NOAA

Error!

Example: see airport list